createdAt,value
2022-08-01T00:02:02.639Z,53.79
2022-08-01T00:07:07.169Z,53.68
2022-08-01T00:12:11.901Z,53.78
2022-08-01T00:17:16.430Z,53.73
2022-08-01T00:22:21.076Z,53.70
2022-08-01T00:27:25.235Z,53.71
2022-08-01T00:32:31.480Z,53.76
2022-08-01T00:37:35.645Z,53.77
2022-08-01T00:42:43.529Z,53.73
2022-08-01T00:47:48.370Z,53.74
2022-08-01T00:53:00.270Z,53.77
2022-08-01T00:58:06.536Z,53.75
2022-08-01T01:03:11.068Z,53.81
2022-08-01T01:08:18.627Z,53.76
2022-08-01T01:13:27.621Z,53.82
2022-08-01T01:18:34.281Z,53.87
2022-08-01T01:23:47.282Z,53.76
2022-08-01T01:29:08.201Z,53.76
2022-08-01T01:34:13.188Z,53.76
2022-08-01T01:39:17.839Z,53.85
2022-08-01T01:44:22.049Z,53.98
2022-08-01T01:49:27.527Z,53.86
2022-08-01T01:54:33.471Z,53.76
2022-08-01T01:59:40.051Z,53.90
2022-08-01T02:04:45.202Z,53.78
2022-08-01T02:09:50.121Z,53.80
2022-08-01T02:14:55.271Z,53.84
2022-08-01T02:19:59.741Z,53.85
2022-08-01T02:25:05.112Z,53.81
2022-08-01T02:30:11.932Z,53.85
2022-08-01T02:35:21.042Z,53.77
2022-08-01T02:40:25.992Z,53.84
2022-08-01T02:45:31.180Z,53.82
2022-08-01T02:50:36.203Z,53.88
2022-08-01T02:55:41.225Z,53.83
2022-08-01T03:00:46.528Z,53.82
2022-08-01T03:05:52.760Z,53.85
2022-08-01T03:10:57.953Z,53.82
2022-08-01T03:16:04.143Z,53.89
2022-08-01T03:21:08.554Z,53.82
2022-08-01T03:26:13.406Z,53.88
2022-08-01T03:31:18.102Z,53.86
2022-08-01T03:36:26.404Z,53.91
2022-08-01T03:41:34.400Z,53.90
2022-08-01T03:46:43.983Z,53.80
2022-08-01T03:51:50.155Z,53.87
2022-08-01T03:56:54.412Z,53.84
2022-08-01T04:01:59.524Z,53.87
2022-08-01T04:07:07.624Z,53.95
2022-08-01T04:12:12.551Z,53.90
2022-08-01T04:17:17.123Z,53.89
2022-08-01T04:22:21.471Z,53.89
2022-08-01T04:27:50.884Z,53.76
2022-08-01T04:32:55.693Z,53.91
2022-08-01T04:38:02.531Z,53.93
2022-08-01T04:43:06.952Z,53.86
2022-08-01T04:48:11.652Z,53.90
2022-08-01T04:53:17.451Z,53.83
2022-08-01T04:58:22.102Z,53.92
2022-08-01T05:03:26.344Z,53.95
2022-08-01T05:08:30.694Z,53.92
2022-08-01T05:13:34.771Z,53.86
2022-08-01T05:18:38.966Z,53.79
2022-08-01T05:23:43.687Z,53.75
2022-08-01T05:28:47.913Z,53.74
2022-08-01T05:33:52.268Z,53.63
2022-08-01T05:38:56.614Z,53.75
2022-08-01T05:44:01.264Z,53.68
2022-08-01T05:49:06.174Z,53.71
2022-08-01T05:54:10.712Z,53.72
2022-08-01T05:59:14.854Z,53.78
2022-08-01T06:04:19.180Z,53.68
2022-08-01T06:09:23.482Z,53.72
2022-08-01T06:14:27.542Z,53.77
2022-08-01T06:19:31.824Z,53.80
2022-08-01T06:24:35.878Z,53.71
2022-08-01T06:29:40.532Z,53.76
2022-08-01T06:34:56.267Z,53.78
2022-08-01T06:40:03.717Z,53.73
2022-08-01T06:45:09.322Z,53.66
2022-08-01T06:50:14.853Z,53.66
2022-08-01T06:55:18.802Z,53.72
2022-08-01T07:00:23.721Z,53.63
2022-08-01T07:05:27.783Z,53.70
2022-08-01T07:10:32.283Z,53.63
2022-08-01T07:15:36.763Z,53.77
2022-08-01T07:20:50.295Z,53.66
2022-08-01T07:26:00.736Z,53.57
2022-08-01T07:31:05.222Z,53.53
2022-08-01T07:36:10.042Z,53.64
2022-08-01T07:41:14.203Z,53.57
2022-08-01T07:46:18.655Z,53.55
2022-08-01T07:51:22.773Z,53.62
2022-08-01T07:56:27.302Z,53.51
2022-08-01T08:01:31.770Z,53.58
2022-08-01T08:06:36.082Z,53.45
2022-08-01T08:11:42.463Z,53.50
2022-08-01T08:16:50.021Z,53.52
2022-08-01T08:21:54.103Z,53.60
2022-08-01T08:26:59.633Z,53.71
2022-08-01T08:32:04.244Z,53.80
2022-08-01T08:37:09.477Z,53.64
2022-08-01T08:42:14.103Z,53.76
2022-08-01T08:47:20.781Z,53.68
2022-08-01T08:52:25.943Z,53.62
2022-08-01T08:57:30.281Z,53.67
2022-08-01T09:02:34.310Z,53.67
2022-08-01T09:07:38.533Z,53.77
2022-08-01T09:13:02.533Z,53.83
2022-08-01T09:18:07.173Z,53.61
2022-08-01T09:23:32.712Z,53.78
2022-08-01T09:28:37.300Z,53.66
2022-08-01T09:33:54.613Z,53.70
2022-08-01T09:39:13.564Z,53.71
2022-08-01T09:44:19.273Z,53.68
2022-08-01T09:49:50.571Z,53.65
2022-08-01T09:54:59.234Z,53.73
2022-08-01T10:00:04.475Z,53.75
2022-08-01T10:05:10.748Z,53.74
2022-08-01T10:10:23.303Z,53.79
2022-08-01T10:15:37.465Z,53.72
2022-08-01T10:20:42.046Z,53.74
2022-08-01T10:25:49.014Z,53.65
2022-08-01T10:30:53.883Z,53.57
2022-08-01T10:35:58.794Z,53.74
2022-08-01T10:41:06.429Z,53.65
2022-08-01T10:46:12.350Z,53.63
2022-08-01T10:51:17.998Z,53.60
2022-08-01T10:56:27.147Z,53.50
2022-08-01T11:01:33.034Z,53.83
2022-08-01T11:06:47.264Z,53.87
2022-08-01T11:12:02.643Z,53.76
2022-08-01T11:17:24.494Z,53.70
2022-08-01T11:22:29.212Z,53.67
2022-08-01T11:27:34.519Z,53.64
2022-08-01T11:33:10.663Z,53.71
2022-08-01T11:38:27.483Z,53.69
2022-08-01T11:43:31.812Z,53.78
2022-08-01T11:48:36.694Z,53.79
2022-08-01T11:53:47.412Z,53.89
2022-08-01T11:58:51.789Z,53.82
2022-08-01T12:03:57.801Z,53.74
2022-08-01T12:09:15.913Z,53.77
2022-08-01T12:14:23.083Z,53.76
2022-08-01T12:19:27.042Z,53.78
2022-08-01T12:24:31.373Z,53.76
2022-08-01T12:29:36.412Z,53.90
2022-08-01T12:34:40.901Z,53.89
2022-08-01T12:39:45.506Z,53.79
2022-08-01T12:44:52.802Z,53.79
2022-08-01T12:49:56.740Z,53.80
2022-08-01T12:55:09.979Z,54.01
2022-08-01T13:00:16.082Z,53.92
2022-08-01T13:05:20.373Z,53.82
2022-08-01T13:10:28.863Z,53.94
2022-08-01T13:15:33.623Z,53.91
2022-08-01T13:20:37.989Z,53.83
2022-08-01T13:25:53.056Z,53.90
2022-08-01T13:30:58.663Z,53.90
2022-08-01T13:36:02.872Z,53.90
2022-08-01T13:41:07.513Z,53.97
2022-08-01T13:46:11.743Z,53.96
2022-08-01T13:51:22.738Z,53.98
2022-08-01T13:56:28.241Z,53.93
2022-08-01T14:01:34.647Z,54.06
2022-08-01T14:06:39.134Z,53.88
2022-08-01T14:11:46.125Z,53.96
2022-08-01T14:16:50.502Z,53.91
2022-08-01T14:21:55.302Z,54.05
2022-08-01T14:26:59.636Z,54.05
2022-08-01T14:32:04.408Z,54.08
2022-08-01T14:37:08.982Z,54.06
2022-08-01T14:42:14.452Z,54.03
2022-08-01T14:47:21.778Z,54.14
2022-08-01T14:52:26.873Z,53.99
2022-08-01T14:57:31.222Z,54.09
2022-08-01T15:02:35.420Z,54.14
2022-08-01T15:07:43.752Z,54.30
2022-08-01T15:12:56.722Z,54.55
2022-08-01T15:18:00.913Z,54.52
2022-08-01T15:23:05.150Z,54.41
2022-08-01T15:28:09.955Z,54.47
2022-08-01T15:33:14.312Z,54.54
2022-08-01T15:38:19.910Z,54.36
2022-08-01T15:43:23.941Z,54.72
2022-08-01T15:48:31.274Z,54.73
2022-08-01T15:53:35.366Z,55.01
2022-08-01T15:58:39.604Z,55.02
2022-08-01T16:03:43.868Z,55.36
2022-08-01T16:08:47.969Z,55.38
2022-08-01T16:13:52.192Z,55.47
2022-08-01T16:18:56.644Z,55.51
2022-08-01T16:24:00.664Z,55.27
2022-08-01T16:29:04.792Z,54.86
2022-08-01T16:34:09.614Z,54.98
2022-08-01T16:39:18.445Z,55.15
2022-08-01T16:44:33.172Z,55.19
2022-08-01T16:49:38.727Z,55.23
2022-08-01T16:54:43.242Z,55.58
2022-08-01T16:59:47.322Z,55.56
2022-08-01T17:04:51.592Z,55.32
2022-08-01T17:09:55.483Z,55.19
2022-08-01T17:14:59.963Z,55.07
2022-08-01T17:20:04.543Z,55.05
2022-08-01T17:25:09.490Z,54.94
2022-08-01T17:30:20.632Z,54.85
2022-08-01T17:35:25.439Z,54.81
2022-08-01T17:40:45.137Z,54.71
2022-08-01T17:45:53.134Z,54.59
2022-08-01T17:50:58.193Z,54.70
2022-08-01T17:56:05.293Z,54.60
2022-08-01T18:01:09.702Z,54.70
2022-08-01T18:06:14.488Z,54.59
2022-08-01T18:11:20.000Z,54.57
2022-08-01T18:16:25.453Z,54.58
2022-08-01T18:21:31.842Z,54.64
2022-08-01T18:26:36.173Z,54.63
2022-08-01T18:31:40.505Z,54.62
2022-08-01T18:36:44.845Z,54.74
2022-08-01T18:41:49.272Z,54.94
2022-08-01T18:46:54.595Z,54.90
2022-08-01T18:51:58.790Z,54.93
2022-08-01T18:57:03.144Z,54.95
2022-08-01T19:02:07.740Z,55.03
2022-08-01T19:07:11.852Z,54.92
2022-08-01T19:12:16.320Z,55.00
2022-08-01T19:17:20.932Z,55.01
2022-08-01T19:22:26.503Z,54.94
2022-08-01T19:27:32.643Z,54.93
2022-08-01T19:32:36.880Z,54.97
2022-08-01T19:37:45.477Z,54.86
2022-08-01T19:42:50.214Z,55.04
2022-08-01T19:47:57.220Z,54.93
2022-08-01T19:53:03.004Z,54.90
2022-08-01T20:03:35.354Z,54.70
2022-08-01T20:08:39.625Z,54.78
2022-08-01T20:13:44.341Z,54.85
2022-08-01T20:18:48.569Z,54.83
2022-08-01T20:24:02.728Z,54.78
2022-08-01T20:29:07.421Z,54.94
2022-08-01T20:34:15.882Z,54.85
2022-08-01T20:39:21.402Z,54.87
2022-08-01T20:44:27.683Z,54.85
2022-08-01T20:49:32.621Z,54.77
2022-08-01T20:54:36.843Z,54.78
2022-08-01T20:59:55.694Z,54.85
2022-08-01T21:05:04.172Z,54.97
2022-08-01T21:10:09.028Z,54.92
2022-08-01T21:15:15.728Z,55.05
2022-08-01T21:20:20.431Z,55.00
2022-08-01T21:25:27.115Z,55.00
2022-08-01T21:30:31.893Z,55.02
2022-08-01T21:35:37.294Z,55.03
2022-08-01T21:40:41.984Z,55.10
2022-08-01T21:45:58.075Z,55.05
2022-08-01T21:51:06.426Z,55.06
2022-08-01T21:56:14.579Z,55.03
2022-08-01T22:01:20.840Z,54.99
2022-08-01T22:06:25.643Z,55.05
2022-08-01T22:11:30.683Z,55.08
2022-08-01T22:16:40.696Z,54.99
2022-08-01T22:21:45.034Z,55.06
2022-08-01T22:26:49.465Z,55.11
2022-08-01T22:31:56.525Z,55.16
2022-08-01T22:37:00.386Z,55.03
2022-08-01T22:42:11.219Z,55.02
2022-08-01T22:47:20.534Z,55.00
2022-08-01T22:52:25.472Z,55.09
2022-08-01T22:57:31.478Z,55.03
2022-08-01T23:02:37.601Z,55.04
2022-08-01T23:07:46.305Z,55.08
2022-08-01T23:12:50.994Z,54.90
2022-08-01T23:17:55.463Z,54.86
2022-08-01T23:23:00.933Z,54.95
2022-08-01T23:28:06.339Z,54.93
2022-08-01T23:33:10.793Z,54.89
2022-08-01T23:38:20.307Z,54.87
2022-08-01T23:43:24.732Z,54.97
2022-08-01T23:48:29.296Z,54.93
2022-08-01T23:53:35.987Z,54.85
2022-08-01T23:58:42.570Z,54.85
